Time;durP1;ratioP1;P1;durP2;ratioP2;P2;SDS_P1;SDS_P2;PMS_P1;PMS_P2;Temp;Humidity;BMP_temperature;BMP_pressure;BME280_temperature;BME280_humidity;BME280_pressure;Samples;Min_cycle;Max_cycle;Signal;HPM_P1;HPM_P2
2023/05/05 00:00:20;;;;;;;1.85;0.80;;;;;;;;;;21004150;28;20044;-66
2023/05/05 00:10:21;;;;;;;3.55;1.60;;;;;;;;;;21002465;28;20048;-67
2023/05/05 00:20:22;;;;;;;2.95;0.80;;;;;;;;;;21002647;28;20493;-67
2023/05/05 00:30:23;;;;;;;2.67;0.70;;;;;;;;;;21000785;28;20044;-67
2023/05/05 00:40:25;;;;;;;2.55;0.70;;;;;;;;;;21000763;28;20048;-67
2023/05/05 00:50:28;;;;;;;2.67;0.90;;;;;;;;;;21000192;28;20044;-66
2023/05/05 01:00:30;;;;;;;4.03;1.25;;;;;;;;;;20997871;28;20044;-67
2023/05/05 01:10:34;;;;;;;2.30;0.77;;;;;;;;;;20997225;28;20123;-67
2023/05/05 01:20:41;;;;;;;3.30;0.90;;;;;;;;;;20995346;28;20049;-66
2023/05/05 01:30:45;;;;;;;2.57;0.80;;;;;;;;;;20995668;28;20123;-67
2023/05/05 01:40:48;;;;;;;3.90;0.55;;;;;;;;;;20996437;28;20048;-66
2023/05/05 01:50:49;;;;;;;1.63;0.60;;;;;;;;;;20994707;28;20040;-67
2023/05/05 02:00:51;;;;;;;4.25;0.80;;;;;;;;;;20995900;28;20458;-66
2023/05/05 02:10:53;;;;;;;2.63;0.60;;;;;;;;;;20993955;28;20154;-67
2023/05/05 02:20:54;;;;;;;3.85;1.10;;;;;;;;;;20994770;28;20060;-67
2023/05/05 02:30:56;;;;;;;2.72;0.68;;;;;;;;;;20999203;28;20044;-67
2023/05/05 02:40:58;;;;;;;5.85;0.68;;;;;;;;;;21008815;28;20052;-66
2023/05/05 02:50:59;;;;;;;3.45;0.80;;;;;;;;;;21009063;28;20055;-66
2023/05/05 03:01:10;;;;;;;3.33;1.00;;;;;;;;;;21008574;28;20033;-66
2023/05/05 03:11:27;;;;;;;1.48;0.70;;;;;;;;;;21008050;28;20060;-67
2023/05/05 03:21:28;;;;;;;5.10;0.65;;;;;;;;;;21006851;28;20134;-67
2023/05/05 03:31:29;;;;;;;4.38;0.77;;;;;;;;;;21006379;28;20401;-66
2023/05/05 03:41:31;;;;;;;3.42;1.00;;;;;;;;;;21005466;28;20500;-66
2023/05/05 03:51:32;;;;;;;3.50;0.90;;;;;;;;;;21006309;28;20044;-66
2023/05/05 04:01:34;;;;;;;2.80;0.88;;;;;;;;;;21005303;28;20666;-66
2023/05/05 04:11:35;;;;;;;2.42;0.80;;;;;;;;;;21004273;28;20045;-67
2023/05/05 04:21:36;;;;;;;5.15;1.15;;;;;;;;;;21002759;28;20053;-66
2023/05/05 04:31:37;;;;;;;4.00;1.13;;;;;;;;;;21002979;28;20048;-66
2023/05/05 04:41:38;;;;;;;4.72;1.10;;;;;;;;;;21002173;28;20084;-66
2023/05/05 04:51:42;;;;;;;3.13;0.98;;;;;;;;;;21001048;28;20044;-66
2023/05/05 05:01:44;;;;;;;2.33;0.70;;;;;;;;;;21000426;28;20051;-65
2023/05/05 05:11:45;;;;;;;3.45;1.48;;;;;;;;;;20998460;28;20087;-66
2023/05/05 05:21:46;;;;;;;2.13;0.80;;;;;;;;;;20998502;28;20059;-65
2023/05/05 05:31:48;;;;;;;6.35;1.58;;;;;;;;;;20997254;28;20083;-66
2023/05/05 05:41:50;;;;;;;6.43;1.08;;;;;;;;;;20998158;28;20520;-66
2023/05/05 05:51:51;;;;;;;4.53;0.85;;;;;;;;;;20997303;28;20052;-66
2023/05/05 06:01:52;;;;;;;8.52;1.98;;;;;;;;;;20995806;28;20044;-66
2023/05/05 06:11:53;;;;;;;3.88;1.27;;;;;;;;;;21011966;28;20612;-67
2023/05/05 06:21:54;;;;;;;4.75;1.17;;;;;;;;;;21012519;28;20468;-66
2023/05/05 06:31:55;;;;;;;5.75;1.27;;;;;;;;;;21011593;28;20041;-66
2023/05/05 06:41:57;;;;;;;5.32;1.42;;;;;;;;;;21010906;28;20468;-66
2023/05/05 06:51:58;;;;;;;5.85;1.65;;;;;;;;;;21010199;28;20120;-67
2023/05/05 07:01:59;;;;;;;7.53;1.90;;;;;;;;;;21009640;28;20044;-67
2023/05/05 07:12:00;;;;;;;4.93;1.70;;;;;;;;;;21007335;28;20048;-66
2023/05/05 07:22:02;;;;;;;4.75;1.75;;;;;;;;;;21006277;28;20052;-67
2023/05/05 07:32:03;;;;;;;6.88;2.15;;;;;;;;;;21007253;28;20074;-66
2023/05/05 07:42:05;;;;;;;6.70;1.80;;;;;;;;;;21006673;28;20490;-66
2023/05/05 07:52:06;;;;;;;8.52;1.92;;;;;;;;;;21004492;28;20045;-66
2023/05/05 08:02:07;;;;;;;7.57;1.80;;;;;;;;;;21004805;28;20507;-64
2023/05/05 08:12:11;;;;;;;8.20;1.90;;;;;;;;;;21004005;28;20119;-64
2023/05/05 08:22:12;;;;;;;3.65;1.35;;;;;;;;;;21003181;28;20049;-64
2023/05/05 08:32:15;;;;;;;8.98;1.65;;;;;;;;;;21002219;28;20049;-65
2023/05/05 08:42:16;;;;;;;4.63;2.03;;;;;;;;;;21000677;28;20057;-64
2023/05/05 08:52:18;;;;;;;8.90;2.22;;;;;;;;;;21001179;28;20056;-64
2023/05/05 09:02:22;;;;;;;8.50;1.90;;;;;;;;;;21000188;28;20044;-63
2023/05/05 09:12:23;;;;;;;5.72;1.95;;;;;;;;;;20999554;28;20506;-65
2023/05/05 09:22:32;;;;;;;5.43;1.50;;;;;;;;;;20998389;28;20517;-62
2023/05/05 09:32:43;;;;;;;4.75;1.38;;;;;;;;;;20996861;28;20040;-62
2023/05/05 09:42:45;;;;;;;4.18;1.02;;;;;;;;;;20996464;28;20056;-62
2023/05/05 09:52:59;;;;;;;7.82;2.00;;;;;;;;;;20997003;28;20056;-62
2023/05/05 10:03:02;;;;;;;10.32;1.90;;;;;;;;;;20995304;28;20083;-58
2023/05/05 10:13:03;;;;;;;11.25;2.25;;;;;;;;;;20996136;28;20509;-63
2023/05/05 10:23:06;;;;;;;12.75;2.55;;;;;;;;;;20995323;28;20060;-63
2023/05/05 10:33:18;;;;;;;11.55;4.30;;;;;;;;;;20993822;28;20063;-64
2023/05/05 10:43:19;;;;;;;5.53;1.90;;;;;;;;;;20989122;28;20048;-62
2023/05/05 10:53:42;;;;;;;6.70;1.40;;;;;;;;;;20999061;28;20534;-65
2023/05/05 11:03:43;;;;;;;4.03;1.67;;;;;;;;;;21009395;28;20430;-66
2023/05/05 11:13:44;;;;;;;8.63;3.97;;;;;;;;;;21008092;28;20476;-64
2023/05/05 11:23:49;;;;;;;6.85;2.30;;;;;;;;;;21006429;28;20475;-66
2023/05/05 11:33:51;;;;;;;3.60;2.60;;;;;;;;;;21006806;28;20036;-64
2023/05/05 11:44:09;;;;;;;3.05;0.80;;;;;;;;;;21005443;28;20048;-67
2023/05/05 11:54:10;;;;;;;3.38;1.00;;;;;;;;;;21004500;28;20047;-69
2023/05/05 12:04:11;;;;;;;8.23;1.00;;;;;;;;;;21004130;28;20545;-69
2023/05/05 12:14:12;;;;;;;1.55;0.50;;;;;;;;;;21005657;28;20044;-70
2023/05/05 12:24:13;;;;;;;3.22;0.52;;;;;;;;;;21002184;28;20049;-70
2023/05/05 12:34:15;;;;;;;3.97;2.35;;;;;;;;;;21001613;28;20097;-72
2023/05/05 12:44:16;;;;;;;3.70;0.80;;;;;;;;;;21001521;28;20048;-71
2023/05/05 12:54:17;;;;;;;4.45;1.10;;;;;;;;;;21000989;28;20059;-71
2023/05/05 13:04:18;;;;;;;6.68;3.00;;;;;;;;;;21000051;28;20075;-70
2023/05/05 13:14:20;;;;;;;3.08;0.98;;;;;;;;;;20999360;28;20044;-70
2023/05/05 13:24:22;;;;;;;2.03;0.60;;;;;;;;;;20997935;28;20048;-71
2023/05/05 13:34:23;;;;;;;2.25;0.55;;;;;;;;;;20998141;28;20040;-71
2023/05/05 13:44:24;;;;;;;2.70;0.80;;;;;;;;;;20997659;28;20058;-69
2023/05/05 13:54:25;;;;;;;4.72;0.50;;;;;;;;;;20996142;28;20101;-71
2023/05/05 14:04:26;;;;;;;5.35;1.83;;;;;;;;;;20996571;28;20040;-71
2023/05/05 14:14:28;;;;;;;4.53;0.93;;;;;;;;;;20996656;28;20044;-70
2023/05/05 14:24:29;;;;;;;2.95;1.63;;;;;;;;;;20997349;28;20084;-71
2023/05/05 14:34:30;;;;;;;2.45;0.85;;;;;;;;;;21012989;28;20055;-70
2023/05/05 14:44:31;;;;;;;2.05;0.80;;;;;;;;;;21009698;28;20048;-70
2023/05/05 14:54:33;;;;;;;2.60;0.75;;;;;;;;;;21009432;28;20048;-71
2023/05/05 15:04:34;;;;;;;2.25;0.80;;;;;;;;;;21009795;28;20430;-70
2023/05/05 15:14:35;;;;;;;4.00;0.70;;;;;;;;;;21008980;28;20051;-69
2023/05/05 15:24:36;;;;;;;2.97;0.95;;;;;;;;;;21007151;28;20517;-66
2023/05/05 15:34:37;;;;;;;3.95;0.80;;;;;;;;;;20998518;28;20109;-62
2023/05/05 15:44:39;;;;;;;11.68;3.95;;;;;;;;;;21003921;28;20452;-68
2023/05/05 15:54:40;;;;;;;1.10;0.52;;;;;;;;;;20995524;28;20448;-70
2023/05/05 16:04:41;;;;;;;3.55;0.40;;;;;;;;;;21003104;28;20050;-71
2023/05/05 16:14:42;;;;;;;2.72;1.05;;;;;;;;;;20991744;28;20105;-65
2023/05/05 16:24:43;;;;;;;2.33;0.90;;;;;;;;;;20995580;28;20053;-67
2023/05/05 16:34:44;;;;;;;1.48;0.50;;;;;;;;;;21001851;28;20053;-69
2023/05/05 16:44:46;;;;;;;2.45;1.10;;;;;;;;;;20998950;28;20078;-67
2023/05/05 16:54:53;;;;;;;4.63;1.77;;;;;;;;;;20998387;28;20044;-65
2023/05/05 17:04:55;;;;;;;4.90;1.75;;;;;;;;;;20935713;28;20511;-66
2023/05/05 17:14:56;;;;;;;2.88;0.68;;;;;;;;;;20923810;28;20089;-65
2023/05/05 17:24:57;;;;;;;5.03;1.23;;;;;;;;;;20994614;28;20060;-74
2023/05/05 17:34:58;;;;;;;2.17;0.70;;;;;;;;;;20995311;28;20079;-70
2023/05/05 17:44:59;;;;;;;4.57;1.10;;;;;;;;;;20993841;28;20490;-72
2023/05/05 17:55:01;;;;;;;4.07;0.68;;;;;;;;;;20971839;28;20414;-68
2023/05/05 18:05:03;;;;;;;2.55;0.65;;;;;;;;;;20984103;28;20497;-65
2023/05/05 18:15:04;;;;;;;3.83;0.80;;;;;;;;;;20968037;28;20743;-65
2023/05/05 18:25:06;;;;;;;3.53;1.05;;;;;;;;;;20990942;28;20049;-63
2023/05/05 18:35:07;;;;;;;6.20;1.63;;;;;;;;;;20982015;28;20048;-62
2023/05/05 18:45:09;;;;;;;7.45;1.20;;;;;;;;;;20977579;28;20045;-69
2023/05/05 18:55:11;;;;;;;6.82;2.63;;;;;;;;;;20994520;28;20077;-68
2023/05/05 19:05:12;;;;;;;5.03;2.72;;;;;;;;;;20989819;28;20132;-69
2023/05/05 19:15:13;;;;;;;6.20;1.42;;;;;;;;;;20993658;28;20047;-66
2023/05/05 19:25:15;;;;;;;3.75;1.25;;;;;;;;;;21008097;28;20650;-69
2023/05/05 19:35:16;;;;;;;5.03;2.53;;;;;;;;;;21005906;28;20048;-68
2023/05/05 19:45:17;;;;;;;7.82;3.70;;;;;;;;;;21004906;28;20094;-69
2023/05/05 19:55:18;;;;;;;4.97;2.40;;;;;;;;;;21004430;28;20128;-68
2023/05/05 20:05:19;;;;;;;6.75;2.25;;;;;;;;;;21003680;28;20123;-69
2023/05/05 20:15:21;;;;;;;10.00;3.13;;;;;;;;;;21004189;28;20406;-67
2023/05/05 20:25:22;;;;;;;7.18;2.58;;;;;;;;;;21002509;28;20434;-68
2023/05/05 20:35:23;;;;;;;8.57;3.40;;;;;;;;;;21001063;28;20074;-69
2023/05/05 20:45:25;;;;;;;7.72;2.28;;;;;;;;;;21000315;28;20059;-68
2023/05/05 20:55:26;;;;;;;5.72;1.75;;;;;;;;;;21000543;28;20121;-69
2023/05/05 21:05:27;;;;;;;6.53;3.00;;;;;;;;;;20998081;28;20047;-69
2023/05/05 21:15:29;;;;;;;10.38;3.08;;;;;;;;;;20998135;28;20071;-68
2023/05/05 21:25:30;;;;;;;6.70;3.72;;;;;;;;;;20996113;28;20045;-67
2023/05/05 21:35:31;;;;;;;8.68;3.38;;;;;;;;;;20996781;28;20041;-68
2023/05/05 21:45:32;;;;;;;4.93;2.53;;;;;;;;;;20996242;28;20041;-68
2023/05/05 21:55:33;;;;;;;6.47;3.28;;;;;;;;;;20995910;28;20044;-68
2023/05/05 22:05:35;;;;;;;8.05;4.25;;;;;;;;;;20995761;28;20044;-69
2023/05/05 22:15:37;;;;;;;7.55;2.88;;;;;;;;;;20995663;28;20053;-68
2023/05/05 22:25:38;;;;;;;7.28;3.13;;;;;;;;;;20993466;28;20096;-68
2023/05/05 22:35:39;;;;;;;15.05;7.50;;;;;;;;;;20994440;28;20040;-68
2023/05/05 22:45:40;;;;;;;10.25;5.10;;;;;;;;;;20993935;28;20048;-68
2023/05/05 22:55:41;;;;;;;7.68;3.42;;;;;;;;;;21009637;28;20041;-66
2023/05/05 23:05:42;;;;;;;5.13;1.75;;;;;;;;;;21009143;28;20041;-69
2023/05/05 23:15:43;;;;;;;12.68;1.98;;;;;;;;;;21008400;28;20048;-68
2023/05/05 23:25:44;;;;;;;4.32;1.30;;;;;;;;;;21006701;28;20496;-68
2023/05/05 23:35:46;;;;;;;5.97;1.45;;;;;;;;;;21007036;28;20559;-67
2023/05/05 23:45:47;;;;;;;4.35;1.55;;;;;;;;;;21005270;28;20052;-68
2023/05/05 23:55:48;;;;;;;6.63;1.63;;;;;;;;;;21005789;28;20041;-68
